• Join FlightAware (Why Join?)
  • Login
  • US Flag 
10:58AM EDT


 

Airport Tracker/Info


-or-


 

Live Flight TrackerFlight Track Log ✈ EGF3994 ✈ 01-Jun-2013 ✈ KORD - KDAY

Flight Track Log - Related Links

Times and Time Zones

All times are in EDT time to prevent confusion due to time zone crossing. See the EGF3994 flight status page for this flight to view local times or setup timezone preferences in your user account.

Time Position Orientation Groundspeed Altitude Reporting Facility
EDT Latitude Longitude Course Direction KTS MPH feet Rate Location/Type
08:17PM 41.9500 -87.9000 90° East 165 190 1,500  Level Chicago TRACON
08:18PM 41.9000 -87.8500 143° Southeast 230 265 3,400 1,620 Climbing Chicago TRACON
08:19PM 41.9624 -87.4906 98° East  Level FlightAware Approximate
08:19PM 41.8667 -87.7833 124° Southeast 273 314 4,800  Level Chicago TRACON
08:19PM 41.8589 -87.7561 111° Southeast 263 303 5,000 120 Climbing Chicago Center
08:20PM 41.9492 -87.3552 95° East  Level FlightAware Approximate
08:20PM 41.8256 -87.6606 115° Southeast 279 321 5,000  Level Chicago Center
08:21PM 41.9395 -87.2193 95° East  Level FlightAware Approximate
08:21PM 41.7825 -87.5800 126° Southeast 276 318 5,000  Level Chicago Center
08:22PM 41.9333 -87.0832 90° East  Level FlightAware Approximate
08:22PM 41.7442 -87.4950 121° Southeast 281 323 5,000  Level Chicago Center
08:23PM 41.7494 -87.3875 86° East 287 330 6,600 1,800 Climbing Chicago Center
08:24PM 41.7550 -87.2786 86° East 293 337 8,800 1,920 Climbing Chicago Center
08:25PM 41.7644 -87.1636 84° East 308 354 10,600 2,040 Climbing Chicago Center
08:26PM 41.8211 -87.0364 59° Northeast 326 375 13,000 1,800 Climbing Chicago Center
08:27PM 41.8400 -86.9150 78° East 333 383 14,400 1,080 Climbing Chicago Center
08:28PM 41.8272 -86.7831 97° East 353 406 15,300 960 Climbing Chicago Center
08:29PM 41.8178 -86.6303 95° East 380 437 16,400 960 Climbing Chicago Center
08:30PM 41.8094 -86.4833 94° East 395 455 17,400 1,020 Climbing Chicago Center
08:31PM 41.7994 -86.3328 95° East 403 464 18,600 1,020 Climbing Chicago Center
08:32PM 41.7900 -86.1794 95° East 412 474 19,500 900 Climbing Chicago Center
08:33PM 41.7803 -86.0228 95° East 421 484 20,500 960 Climbing Chicago Center
08:34PM 41.7708 -85.8656 95° East 422 486 21,500 960 Climbing Chicago Center
08:35PM 41.7608 -85.7047 95° East 430 495 22,500 720 Climbing Chicago Center
08:36PM 41.7381 -85.5478 101° East 425 489 23,000 240 Climbing Chicago Center
08:38PM 41.6317 -85.4633 149° Southeast 403 464 23,000  Level Chicago Center
08:39PM 41.5242 -85.4167 162° South 403 464 23,000  Level Chicago Center
08:40PM 41.4178 -85.3697 162° South 406 467 23,000 -360 Level Chicago Center
08:41PM 41.3100 -85.3244 162° South 407 468 22,300 -840 Descending Chicago Center
08:42PM 41.2056 -85.2806 162° South 399 459 21,300 -1,080 Descending Chicago Center
08:43PM 41.0803 -85.2275 162° South 395 455 20,100 -1,200 Descending Chicago Center
08:44PM 40.9769 -85.1800 161° South 395 455 18,900 -1,260 Descending Chicago Center
08:45PM 40.9031 -85.0589 129° Southeast 421 484 17,600 -1,260 Descending Chicago Center
08:46PM 40.8358 -84.9456 128° Southeast 404 465 16,400 -1,080 Descending Chicago Center
08:47PM 40.7700 -84.8342 128° Southeast 392 451 15,400 -720 Descending Chicago Center
08:48PM 40.7086 -84.7317 128° Southeast 368 423 15,000 -240 Descending Chicago Center
08:49PM 40.6606 -84.6503 128° Southeast 299 344 15,000  Level Chicago Center
08:49PM 40.6081 -84.6233 159° South 260 299 15,000  Level Indianapolis Center
08:50PM 40.5772 -84.6128 165° South 287 330 15,000 -120 Level Indianapolis Center
08:51PM 40.5075 -84.5953 169° South 314 361 14,900 -660 Descending Indianapolis Center
08:52PM 40.4061 -84.5694 169° South 312 359 13,700 -1,020 Descending Indianapolis Center
08:53PM 40.3411 -84.5531 169° South 301 346 12,900 -1,080 Descending Indianapolis Center
08:54PM 40.2689 -84.5128 157° South 269 310 11,800 -1,140 Descending Indianapolis Center
08:55PM 40.2006 -84.4761 158° South 257 296 10,700 -1,080 Descending Indianapolis Center
08:56PM 40.1261 -84.4386 159° South 266 306 9,700 -1,020 Descending Indianapolis Center
08:57PM 40.0594 -84.4078 161° South 259 298 8,700 -1,020 Descending Indianapolis Center
08:58PM 39.9911 -84.3711 158° South 267 307 7,700 -1,200 Descending Indianapolis Center
08:59PM 39.9181 -84.3422 163° South 253 291 6,200 -1,560 Descending Indianapolis Center
09:00PM 39.8442 -84.3214 168° South 248 285 4,500 -1,140 Descending Indianapolis Center
09:01PM 39.8278 -84.2375 104° East 293 337 4,000 -420 Descending Indianapolis Center
09:02PM 39.8533 -84.1328 72° East 288 331 3,700 -300 Descending Indianapolis Center